sensor_id;sensor_type;location;lat;lon;timestamp;P1;durP1;ratioP1;P2;durP2;ratioP2
6671;SDS011;3372;48.690;12.362;2023-11-21T00:02:02;6.82;;;1.08;;
6671;SDS011;3372;48.690;12.362;2023-11-21T00:06:54;6.18;;;1.20;;
6671;SDS011;3372;48.690;12.362;2023-11-21T00:09:20;8.25;;;1.55;;
6671;SDS011;3372;48.690;12.362;2023-11-21T00:11:46;5.90;;;1.50;;
6671;SDS011;3372;48.690;12.362;2023-11-21T00:14:12;3.60;;;1.30;;
6671;SDS011;3372;48.690;12.362;2023-11-21T00:16:39;6.18;;;1.42;;
6671;SDS011;3372;48.690;12.362;2023-11-21T00:19:05;6.75;;;1.50;;
6671;SDS011;3372;48.690;12.362;2023-11-21T00:21:31;5.57;;;1.58;;
6671;SDS011;3372;48.690;12.362;2023-11-21T00:23:58;4.90;;;1.40;;
6671;SDS011;3372;48.690;12.362;2023-11-21T00:26:23;5.57;;;1.40;;
6671;SDS011;3372;48.690;12.362;2023-11-21T00:28:49;7.10;;;1.70;;
6671;SDS011;3372;48.690;12.362;2023-11-21T00:31:15;4.55;;;1.70;;
6671;SDS011;3372;48.690;12.362;2023-11-21T00:33:41;6.40;;;1.70;;
6671;SDS011;3372;48.690;12.362;2023-11-21T00:36:08;4.85;;;1.63;;
6671;SDS011;3372;48.690;12.362;2023-11-21T00:38:37;5.75;;;1.77;;
6671;SDS011;3372;48.690;12.362;2023-11-21T00:41:06;6.68;;;2.33;;
6671;SDS011;3372;48.690;12.362;2023-11-21T00:43:31;10.18;;;2.33;;
6671;SDS011;3372;48.690;12.362;2023-11-21T00:45:58;5.88;;;1.45;;
6671;SDS011;3372;48.690;12.362;2023-11-21T00:48:24;7.72;;;2.00;;
6671;SDS011;3372;48.690;12.362;2023-11-21T00:50:50;6.28;;;2.22;;
6671;SDS011;3372;48.690;12.362;2023-11-21T00:53:15;15.85;;;3.58;;
6671;SDS011;3372;48.690;12.362;2023-11-21T00:55:42;12.63;;;5.15;;
6671;SDS011;3372;48.690;12.362;2023-11-21T00:58:07;9.45;;;3.33;;
6671;SDS011;3372;48.690;12.362;2023-11-21T01:00:33;8.15;;;2.95;;
6671;SDS011;3372;48.690;12.362;2023-11-21T01:02:59;7.43;;;2.80;;
6671;SDS011;3372;48.690;12.362;2023-11-21T01:05:25;7.28;;;3.63;;
6671;SDS011;3372;48.690;12.362;2023-11-21T01:07:51;10.70;;;2.58;;
6671;SDS011;3372;48.690;12.362;2023-11-21T01:10:17;9.68;;;4.03;;
6671;SDS011;3372;48.690;12.362;2023-11-21T01:12:43;7.93;;;3.08;;
6671;SDS011;3372;48.690;12.362;2023-11-21T01:15:08;7.55;;;3.22;;
6671;SDS011;3372;48.690;12.362;2023-11-21T01:17:36;13.30;;;4.10;;
6671;SDS011;3372;48.690;12.362;2023-11-21T01:20:03;10.63;;;4.60;;
6671;SDS011;3372;48.690;12.362;2023-11-21T01:22:36;10.63;;;3.28;;
6671;SDS011;3372;48.690;12.362;2023-11-21T01:25:01;10.02;;;3.28;;
6671;SDS011;3372;48.690;12.362;2023-11-21T01:27:29;9.02;;;3.35;;
6671;SDS011;3372;48.690;12.362;2023-11-21T01:29:55;9.40;;;3.45;;
6671;SDS011;3372;48.690;12.362;2023-11-21T01:32:20;8.45;;;3.42;;
6671;SDS011;3372;48.690;12.362;2023-11-21T01:34:47;5.72;;;2.63;;
6671;SDS011;3372;48.690;12.362;2023-11-21T01:37:13;10.65;;;3.83;;
6671;SDS011;3372;48.690;12.362;2023-11-21T01:39:38;8.88;;;3.03;;
6671;SDS011;3372;48.690;12.362;2023-11-21T01:42:05;6.78;;;2.47;;
6671;SDS011;3372;48.690;12.362;2023-11-21T01:44:31;5.10;;;2.45;;
6671;SDS011;3372;48.690;12.362;2023-11-21T01:46:57;11.02;;;2.88;;
6671;SDS011;3372;48.690;12.362;2023-11-21T01:49:22;8.05;;;2.60;;
6671;SDS011;3372;48.690;12.362;2023-11-21T01:51:49;7.15;;;2.97;;
6671;SDS011;3372;48.690;12.362;2023-11-21T01:54:16;5.90;;;2.08;;
6671;SDS011;3372;48.690;12.362;2023-11-21T01:56:46;4.85;;;2.15;;
6671;SDS011;3372;48.690;12.362;2023-11-21T01:59:14;12.43;;;3.30;;
6671;SDS011;3372;48.690;12.362;2023-11-21T02:01:44;12.80;;;2.90;;
6671;SDS011;3372;48.690;12.362;2023-11-21T02:06:37;8.85;;;2.50;;
6671;SDS011;3372;48.690;12.362;2023-11-21T02:09:04;9.25;;;2.83;;
6671;SDS011;3372;48.690;12.362;2023-11-21T02:11:30;7.03;;;2.88;;
6671;SDS011;3372;48.690;12.362;2023-11-21T02:13:58;9.00;;;2.53;;
6671;SDS011;3372;48.690;12.362;2023-11-21T02:16:25;8.23;;;3.35;;
6671;SDS011;3372;48.690;12.362;2023-11-21T02:18:52;7.00;;;3.10;;
6671;SDS011;3372;48.690;12.362;2023-11-21T02:21:19;9.73;;;2.45;;
6671;SDS011;3372;48.690;12.362;2023-11-21T02:23:45;13.00;;;2.97;;
6671;SDS011;3372;48.690;12.362;2023-11-21T02:26:12;6.00;;;2.45;;
6671;SDS011;3372;48.690;12.362;2023-11-21T02:28:38;12.15;;;3.22;;
6671;SDS011;3372;48.690;12.362;2023-11-21T02:31:05;9.98;;;2.92;;
6671;SDS011;3372;48.690;12.362;2023-11-21T02:33:32;8.85;;;3.30;;
6671;SDS011;3372;48.690;12.362;2023-11-21T02:35:59;10.50;;;3.65;;
6671;SDS011;3372;48.690;12.362;2023-11-21T02:38:25;8.60;;;3.40;;
6671;SDS011;3372;48.690;12.362;2023-11-21T02:40:51;7.65;;;3.45;;
6671;SDS011;3372;48.690;12.362;2023-11-21T02:43:16;9.40;;;4.63;;
6671;SDS011;3372;48.690;12.362;2023-11-21T02:45:42;9.30;;;3.33;;
6671;SDS011;3372;48.690;12.362;2023-11-21T02:48:08;9.95;;;3.58;;
6671;SDS011;3372;48.690;12.362;2023-11-21T02:50:34;5.75;;;2.58;;
6671;SDS011;3372;48.690;12.362;2023-11-21T02:53:00;10.00;;;3.05;;
6671;SDS011;3372;48.690;12.362;2023-11-21T02:55:26;11.18;;;3.05;;
6671;SDS011;3372;48.690;12.362;2023-11-21T02:57:54;10.00;;;3.10;;
6671;SDS011;3372;48.690;12.362;2023-11-21T03:00:21;7.35;;;2.67;;
6671;SDS011;3372;48.690;12.362;2023-11-21T03:02:49;8.82;;;3.05;;
6671;SDS011;3372;48.690;12.362;2023-11-21T03:05:14;8.05;;;3.05;;
6671;SDS011;3372;48.690;12.362;2023-11-21T03:07:40;8.52;;;2.60;;
6671;SDS011;3372;48.690;12.362;2023-11-21T03:10:06;6.78;;;2.72;;
6671;SDS011;3372;48.690;12.362;2023-11-21T03:12:36;7.22;;;2.88;;
6671;SDS011;3372;48.690;12.362;2023-11-21T03:15:03;5.75;;;2.53;;
6671;SDS011;3372;48.690;12.362;2023-11-21T03:17:30;6.43;;;2.17;;
6671;SDS011;3372;48.690;12.362;2023-11-21T03:19:56;5.55;;;1.83;;
6671;SDS011;3372;48.690;12.362;2023-11-21T03:22:22;8.45;;;2.85;;
6671;SDS011;3372;48.690;12.362;2023-11-21T03:24:48;9.65;;;2.55;;
6671;SDS011;3372;48.690;12.362;2023-11-21T03:27:14;5.63;;;2.30;;
6671;SDS011;3372;48.690;12.362;2023-11-21T03:29:39;7.25;;;2.92;;
6671;SDS011;3372;48.690;12.362;2023-11-21T03:32:05;6.15;;;2.80;;
6671;SDS011;3372;48.690;12.362;2023-11-21T03:34:32;9.20;;;2.45;;
6671;SDS011;3372;48.690;12.362;2023-11-21T03:36:57;9.25;;;2.92;;
6671;SDS011;3372;48.690;12.362;2023-11-21T03:39:23;6.88;;;2.30;;
6671;SDS011;3372;48.690;12.362;2023-11-21T03:41:50;7.85;;;2.42;;
6671;SDS011;3372;48.690;12.362;2023-11-21T03:44:16;6.97;;;2.55;;
6671;SDS011;3372;48.690;12.362;2023-11-21T03:46:43;4.70;;;2.00;;
6671;SDS011;3372;48.690;12.362;2023-11-21T03:49:09;8.45;;;2.55;;
6671;SDS011;3372;48.690;12.362;2023-11-21T03:51:35;8.10;;;2.67;;
6671;SDS011;3372;48.690;12.362;2023-11-21T03:54:01;5.75;;;1.92;;
6671;SDS011;3372;48.690;12.362;2023-11-21T03:56:28;6.55;;;2.83;;
6671;SDS011;3372;48.690;12.362;2023-11-21T03:58:53;7.03;;;2.40;;
6671;SDS011;3372;48.690;12.362;2023-11-21T04:01:20;8.25;;;2.85;;
6671;SDS011;3372;48.690;12.362;2023-11-21T04:03:47;8.27;;;3.97;;
6671;SDS011;3372;48.690;12.362;2023-11-21T04:06:13;10.80;;;4.75;;
6671;SDS011;3372;48.690;12.362;2023-11-21T04:08:39;7.60;;;3.70;;
6671;SDS011;3372;48.690;12.362;2023-11-21T04:11:04;8.05;;;2.97;;
6671;SDS011;3372;48.690;12.362;2023-11-21T04:13:30;9.75;;;2.78;;
6671;SDS011;3372;48.690;12.362;2023-11-21T04:15:56;8.27;;;2.63;;
6671;SDS011;3372;48.690;12.362;2023-11-21T04:18:21;7.18;;;2.65;;
6671;SDS011;3372;48.690;12.362;2023-11-21T04:20:48;10.38;;;2.85;;
6671;SDS011;3372;48.690;12.362;2023-11-21T04:25:41;8.52;;;2.92;;
6671;SDS011;3372;48.690;12.362;2023-11-21T04:28:06;9.38;;;2.40;;
6671;SDS011;3372;48.690;12.362;2023-11-21T04:30:32;9.23;;;3.17;;
6671;SDS011;3372;48.690;12.362;2023-11-21T04:32:58;8.25;;;2.83;;
6671;SDS011;3372;48.690;12.362;2023-11-21T04:35:23;9.65;;;2.72;;
6671;SDS011;3372;48.690;12.362;2023-11-21T04:37:49;8.88;;;3.50;;
6671;SDS011;3372;48.690;12.362;2023-11-21T04:40:16;9.98;;;3.90;;
6671;SDS011;3372;48.690;12.362;2023-11-21T04:42:42;8.60;;;3.38;;
6671;SDS011;3372;48.690;12.362;2023-11-21T04:45:07;9.35;;;3.50;;
6671;SDS011;3372;48.690;12.362;2023-11-21T04:47:34;6.78;;;2.88;;
6671;SDS011;3372;48.690;12.362;2023-11-21T04:50:00;9.13;;;3.17;;
6671;SDS011;3372;48.690;12.362;2023-11-21T04:52:26;12.40;;;4.28;;
6671;SDS011;3372;48.690;12.362;2023-11-21T04:54:52;6.30;;;3.05;;
6671;SDS011;3372;48.690;12.362;2023-11-21T04:57:19;8.43;;;2.92;;
6671;SDS011;3372;48.690;12.362;2023-11-21T04:59:45;7.72;;;3.17;;
6671;SDS011;3372;48.690;12.362;2023-11-21T05:02:11;6.60;;;2.72;;
6671;SDS011;3372;48.690;12.362;2023-11-21T05:04:37;8.10;;;3.20;;
6671;SDS011;3372;48.690;12.362;2023-11-21T05:07:03;7.38;;;3.15;;
6671;SDS011;3372;48.690;12.362;2023-11-21T05:09:28;5.50;;;2.67;;
6671;SDS011;3372;48.690;12.362;2023-11-21T05:11:57;7.88;;;3.30;;
6671;SDS011;3372;48.690;12.362;2023-11-21T05:14:23;9.13;;;3.33;;
6671;SDS011;3372;48.690;12.362;2023-11-21T05:16:48;8.13;;;2.67;;
6671;SDS011;3372;48.690;12.362;2023-11-21T05:19:16;8.32;;;2.97;;
6671;SDS011;3372;48.690;12.362;2023-11-21T05:21:42;9.38;;;4.25;;
6671;SDS011;3372;48.690;12.362;2023-11-21T05:24:08;6.22;;;2.47;;
6671;SDS011;3372;48.690;12.362;2023-11-21T05:26:34;6.28;;;2.90;;
6671;SDS011;3372;48.690;12.362;2023-11-21T05:29:00;8.27;;;3.10;;
6671;SDS011;3372;48.690;12.362;2023-11-21T05:31:26;6.45;;;3.50;;
6671;SDS011;3372;48.690;12.362;2023-11-21T05:33:52;6.88;;;2.30;;
6671;SDS011;3372;48.690;12.362;2023-11-21T05:36:18;5.35;;;2.13;;
6671;SDS011;3372;48.690;12.362;2023-11-21T05:38:43;6.93;;;2.90;;
6671;SDS011;3372;48.690;12.362;2023-11-21T05:41:09;5.88;;;2.88;;
6671;SDS011;3372;48.690;12.362;2023-11-21T05:43:38;5.50;;;2.35;;
6671;SDS011;3372;48.690;12.362;2023-11-21T05:46:04;6.72;;;2.20;;
6671;SDS011;3372;48.690;12.362;2023-11-21T05:48:32;4.95;;;2.38;;
6671;SDS011;3372;48.690;12.362;2023-11-21T05:50:57;5.25;;;1.70;;
6671;SDS011;3372;48.690;12.362;2023-11-21T05:53:24;4.95;;;1.58;;
6671;SDS011;3372;48.690;12.362;2023-11-21T05:55:49;3.58;;;1.67;;
6671;SDS011;3372;48.690;12.362;2023-11-21T05:58:15;4.03;;;1.60;;
6671;SDS011;3372;48.690;12.362;2023-11-21T06:00:41;6.57;;;3.97;;
6671;SDS011;3372;48.690;12.362;2023-11-21T06:03:06;5.65;;;1.55;;
6671;SDS011;3372;48.690;12.362;2023-11-21T06:05:33;6.53;;;2.03;;
6671;SDS011;3372;48.690;12.362;2023-11-21T06:07:58;5.32;;;1.98;;
6671;SDS011;3372;48.690;12.362;2023-11-21T06:12:51;5.03;;;1.20;;
6671;SDS011;3372;48.690;12.362;2023-11-21T06:15:18;4.25;;;1.38;;
6671;SDS011;3372;48.690;12.362;2023-11-21T06:17:48;2.65;;;1.20;;
6671;SDS011;3372;48.690;12.362;2023-11-21T06:20:19;3.45;;;1.67;;
6671;SDS011;3372;48.690;12.362;2023-11-21T06:22:47;3.20;;;1.02;;
6671;SDS011;3372;48.690;12.362;2023-11-21T06:25:14;4.70;;;1.60;;
6671;SDS011;3372;48.690;12.362;2023-11-21T06:27:41;2.53;;;1.30;;
6671;SDS011;3372;48.690;12.362;2023-11-21T06:30:09;8.27;;;1.42;;
6671;SDS011;3372;48.690;12.362;2023-11-21T06:35:03;3.00;;;1.17;;
6671;SDS011;3372;48.690;12.362;2023-11-21T06:37:29;5.63;;;2.90;;
6671;SDS011;3372;48.690;12.362;2023-11-21T06:39:55;5.93;;;2.40;;
6671;SDS011;3372;48.690;12.362;2023-11-21T06:42:23;9.48;;;3.90;;
6671;SDS011;3372;48.690;12.362;2023-11-21T06:44:52;3.80;;;2.05;;
6671;SDS011;3372;48.690;12.362;2023-11-21T06:47:18;4.18;;;2.35;;
6671;SDS011;3372;48.690;12.362;2023-11-21T06:49:50;9.43;;;3.35;;
6671;SDS011;3372;48.690;12.362;2023-11-21T06:52:16;14.65;;;6.60;;
6671;SDS011;3372;48.690;12.362;2023-11-21T06:54:43;9.85;;;5.10;;
6671;SDS011;3372;48.690;12.362;2023-11-21T06:57:08;7.10;;;3.63;;
6671;SDS011;3372;48.690;12.362;2023-11-21T06:59:36;10.50;;;5.13;;
6671;SDS011;3372;48.690;12.362;2023-11-21T07:04:27;9.10;;;5.28;;
6671;SDS011;3372;48.690;12.362;2023-11-21T07:06:53;11.38;;;6.25;;
6671;SDS011;3372;48.690;12.362;2023-11-21T07:09:19;8.82;;;4.97;;
6671;SDS011;3372;48.690;12.362;2023-11-21T07:11:48;11.85;;;7.47;;
6671;SDS011;3372;48.690;12.362;2023-11-21T07:14:14;15.13;;;7.03;;
6671;SDS011;3372;48.690;12.362;2023-11-21T07:16:42;10.70;;;6.10;;
6671;SDS011;3372;48.690;12.362;2023-11-21T07:19:07;9.45;;;5.68;;
6671;SDS011;3372;48.690;12.362;2023-11-21T07:21:33;9.50;;;5.60;;
6671;SDS011;3372;48.690;12.362;2023-11-21T07:24:00;15.63;;;7.28;;
6671;SDS011;3372;48.690;12.362;2023-11-21T07:26:26;6.68;;;4.60;;
6671;SDS011;3372;48.690;12.362;2023-11-21T07:28:52;14.13;;;6.30;;
6671;SDS011;3372;48.690;12.362;2023-11-21T07:31:18;10.68;;;5.53;;
6671;SDS011;3372;48.690;12.362;2023-11-21T07:33:45;7.15;;;5.22;;
6671;SDS011;3372;48.690;12.362;2023-11-21T07:36:14;10.70;;;5.35;;
6671;SDS011;3372;48.690;12.362;2023-11-21T07:38:40;13.13;;;6.35;;
6671;SDS011;3372;48.690;12.362;2023-11-21T07:41:07;11.27;;;6.82;;
6671;SDS011;3372;48.690;12.362;2023-11-21T07:43:35;13.43;;;6.30;;
6671;SDS011;3372;48.690;12.362;2023-11-21T07:46:01;17.73;;;8.05;;
6671;SDS011;3372;48.690;12.362;2023-11-21T07:48:30;11.90;;;5.78;;
6671;SDS011;3372;48.690;12.362;2023-11-21T07:50:56;12.10;;;6.75;;
6671;SDS011;3372;48.690;12.362;2023-11-21T07:53:25;10.07;;;5.68;;
6671;SDS011;3372;48.690;12.362;2023-11-21T07:55:53;11.10;;;6.18;;
6671;SDS011;3372;48.690;12.362;2023-11-21T07:58:19;11.60;;;5.90;;
6671;SDS011;3372;48.690;12.362;2023-11-21T08:00:45;7.70;;;4.88;;
6671;SDS011;3372;48.690;12.362;2023-11-21T08:03:13;10.23;;;5.72;;
6671;SDS011;3372;48.690;12.362;2023-11-21T08:05:39;9.40;;;6.22;;
6671;SDS011;3372;48.690;12.362;2023-11-21T08:08:04;11.98;;;7.03;;
6671;SDS011;3372;48.690;12.362;2023-11-21T08:10:30;13.05;;;8.18;;
6671;SDS011;3372;48.690;12.362;2023-11-21T08:12:56;12.15;;;7.45;;
6671;SDS011;3372;48.690;12.362;2023-11-21T08:15:21;11.30;;;7.97;;
6671;SDS011;3372;48.690;12.362;2023-11-21T08:17:47;11.75;;;7.18;;
6671;SDS011;3372;48.690;12.362;2023-11-21T08:20:13;10.75;;;6.45;;
6671;SDS011;3372;48.690;12.362;2023-11-21T08:22:41;13.48;;;6.88;;
6671;SDS011;3372;48.690;12.362;2023-11-21T08:25:08;10.68;;;6.80;;
6671;SDS011;3372;48.690;12.362;2023-11-21T08:27:34;16.65;;;12.82;;
6671;SDS011;3372;48.690;12.362;2023-11-21T08:30:00;11.52;;;7.93;;
6671;SDS011;3372;48.690;12.362;2023-11-21T08:32:28;8.05;;;4.65;;
6671;SDS011;3372;48.690;12.362;2023-11-21T08:37:20;8.07;;;4.70;;
6671;SDS011;3372;48.690;12.362;2023-11-21T08:39:47;8.00;;;4.40;;
6671;SDS011;3372;48.690;12.362;2023-11-21T08:44:39;28.48;;;17.48;;
6671;SDS011;3372;48.690;12.362;2023-11-21T08:47:05;24.02;;;15.10;;
6671;SDS011;3372;48.690;12.362;2023-11-21T08:49:31;29.65;;;16.90;;
6671;SDS011;3372;48.690;12.362;2023-11-21T08:51:57;17.20;;;10.45;;
6671;SDS011;3372;48.690;12.362;2023-11-21T08:54:24;16.80;;;6.53;;
6671;SDS011;3372;48.690;12.362;2023-11-21T08:56:51;18.73;;;9.07;;
6671;SDS011;3372;48.690;12.362;2023-11-21T08:59:20;9.48;;;5.13;;
6671;SDS011;3372;48.690;12.362;2023-11-21T09:01:46;21.52;;;15.45;;
6671;SDS011;3372;48.690;12.362;2023-11-21T09:04:12;7.68;;;3.78;;
6671;SDS011;3372;48.690;12.362;2023-11-21T09:06:38;7.65;;;4.35;;
6671;SDS011;3372;48.690;12.362;2023-11-21T09:09:04;8.88;;;4.20;;
6671;SDS011;3372;48.690;12.362;2023-11-21T09:11:31;8.75;;;4.78;;
6671;SDS011;3372;48.690;12.362;2023-11-21T09:13:59;11.60;;;6.90;;
6671;SDS011;3372;48.690;12.362;2023-11-21T09:16:25;15.75;;;9.48;;
6671;SDS011;3372;48.690;12.362;2023-11-21T09:18:51;11.02;;;6.22;;
6671;SDS011;3372;48.690;12.362;2023-11-21T09:21:17;9.98;;;5.88;;
6671;SDS011;3372;48.690;12.362;2023-11-21T09:23:44;8.73;;;5.00;;
6671;SDS011;3372;48.690;12.362;2023-11-21T09:28:35;14.05;;;8.70;;
6671;SDS011;3372;48.690;12.362;2023-11-21T09:31:06;16.30;;;11.70;;
6671;SDS011;3372;48.690;12.362;2023-11-21T09:33:34;9.75;;;5.35;;
6671;SDS011;3372;48.690;12.362;2023-11-21T09:36:00;15.45;;;10.48;;
6671;SDS011;3372;48.690;12.362;2023-11-21T09:38:26;11.18;;;5.25;;
6671;SDS011;3372;48.690;12.362;2023-11-21T09:40:53;9.13;;;5.38;;
6671;SDS011;3372;48.690;12.362;2023-11-21T09:43:20;9.55;;;5.40;;
6671;SDS011;3372;48.690;12.362;2023-11-21T09:45:47;8.98;;;6.72;;
6671;SDS011;3372;48.690;12.362;2023-11-21T09:48:19;8.43;;;5.68;;
6671;SDS011;3372;48.690;12.362;2023-11-21T09:50:46;12.70;;;5.78;;
6671;SDS011;3372;48.690;12.362;2023-11-21T09:53:13;8.20;;;5.28;;
6671;SDS011;3372;48.690;12.362;2023-11-21T09:55:44;11.27;;;5.88;;
6671;SDS011;3372;48.690;12.362;2023-11-21T09:58:11;8.27;;;5.53;;
6671;SDS011;3372;48.690;12.362;2023-11-21T10:00:41;7.32;;;5.72;;
6671;SDS011;3372;48.690;12.362;2023-11-21T10:03:08;9.93;;;6.13;;
6671;SDS011;3372;48.690;12.362;2023-11-21T10:05:35;11.45;;;6.85;;
6671;SDS011;3372;48.690;12.362;2023-11-21T10:08:02;9.10;;;5.40;;
6671;SDS011;3372;48.690;12.362;2023-11-21T10:10:33;8.23;;;5.45;;
6671;SDS011;3372;48.690;12.362;2023-11-21T10:13:01;11.40;;;6.32;;
6671;SDS011;3372;48.690;12.362;2023-11-21T10:15:31;9.45;;;6.25;;
6671;SDS011;3372;48.690;12.362;2023-11-21T10:17:59;8.25;;;5.35;;
6671;SDS011;3372;48.690;12.362;2023-11-21T10:20:28;8.70;;;5.53;;
6671;SDS011;3372;48.690;12.362;2023-11-21T10:22:55;9.27;;;5.35;;
6671;SDS011;3372;48.690;12.362;2023-11-21T10:25:23;11.70;;;4.43;;
6671;SDS011;3372;48.690;12.362;2023-11-21T10:27:49;6.82;;;3.95;;
6671;SDS011;3372;48.690;12.362;2023-11-21T10:30:17;5.72;;;3.45;;
6671;SDS011;3372;48.690;12.362;2023-11-21T10:32:43;6.32;;;3.40;;
6671;SDS011;3372;48.690;12.362;2023-11-21T10:35:09;10.07;;;3.20;;
6671;SDS011;3372;48.690;12.362;2023-11-21T10:37:39;6.07;;;2.80;;
6671;SDS011;3372;48.690;12.362;2023-11-21T10:40:09;8.35;;;5.32;;
6671;SDS011;3372;48.690;12.362;2023-11-21T10:42:37;4.80;;;2.58;;
6671;SDS011;3372;48.690;12.362;2023-11-21T10:45:04;3.80;;;2.05;;
6671;SDS011;3372;48.690;12.362;2023-11-21T10:47:37;4.95;;;2.70;;
6671;SDS011;3372;48.690;12.362;2023-11-21T10:50:04;3.83;;;2.53;;
6671;SDS011;3372;48.690;12.362;2023-11-21T10:52:30;5.72;;;1.85;;
6671;SDS011;3372;48.690;12.362;2023-11-21T10:54:55;6.30;;;2.28;;
6671;SDS011;3372;48.690;12.362;2023-11-21T10:57:24;4.20;;;2.20;;
6671;SDS011;3372;48.690;12.362;2023-11-21T10:59:51;5.30;;;1.98;;
6671;SDS011;3372;48.690;12.362;2023-11-21T11:02:25;4.40;;;2.40;;
6671;SDS011;3372;48.690;12.362;2023-11-21T11:04:56;4.65;;;3.03;;
6671;SDS011;3372;48.690;12.362;2023-11-21T11:07:25;3.65;;;2.20;;
6671;SDS011;3372;48.690;12.362;2023-11-21T11:09:55;3.55;;;2.45;;
6671;SDS011;3372;48.690;12.362;2023-11-21T11:12:23;3.88;;;1.90;;
6671;SDS011;3372;48.690;12.362;2023-11-21T11:14:49;4.00;;;1.50;;
6671;SDS011;3372;48.690;12.362;2023-11-21T11:17:15;6.28;;;2.75;;
6671;SDS011;3372;48.690;12.362;2023-11-21T11:19:41;3.60;;;2.00;;
6671;SDS011;3372;48.690;12.362;2023-11-21T11:25:16;4.55;;;2.75;;
6671;SDS011;3372;48.690;12.362;2023-11-21T11:32:59;3.10;;;1.90;;
6671;SDS011;3372;48.690;12.362;2023-11-21T11:38:16;3.90;;;2.22;;
6671;SDS011;3372;48.690;12.362;2023-11-21T11:40:46;4.43;;;2.20;;
6671;SDS011;3372;48.690;12.362;2023-11-21T11:43:12;6.32;;;2.67;;
6671;SDS011;3372;48.690;12.362;2023-11-21T11:45:37;4.45;;;2.80;;
6671;SDS011;3372;48.690;12.362;2023-11-21T11:48:07;4.55;;;2.30;;
6671;SDS011;3372;48.690;12.362;2023-11-21T11:50:33;3.67;;;2.10;;
6671;SDS011;3372;48.690;12.362;2023-11-21T11:53:33;4.15;;;2.70;;
6671;SDS011;3372;48.690;12.362;2023-11-21T11:58:53;7.05;;;2.20;;
6671;SDS011;3372;48.690;12.362;2023-11-21T12:01:20;4.55;;;2.30;;
6671;SDS011;3372;48.690;12.362;2023-11-21T12:06:34;3.60;;;1.65;;
6671;SDS011;3372;48.690;12.362;2023-11-21T12:09:01;4.20;;;1.73;;
6671;SDS011;3372;48.690;12.362;2023-11-21T12:11:33;4.20;;;1.90;;
6671;SDS011;3372;48.690;12.362;2023-11-21T12:14:00;4.55;;;2.05;;
6671;SDS011;3372;48.690;12.362;2023-11-21T12:16:27;4.63;;;1.85;;
6671;SDS011;3372;48.690;12.362;2023-11-21T12:18:53;3.38;;;1.63;;
6671;SDS011;3372;48.690;12.362;2023-11-21T12:21:20;4.38;;;2.13;;
6671;SDS011;3372;48.690;12.362;2023-11-21T12:23:47;5.90;;;2.97;;
6671;SDS011;3372;48.690;12.362;2023-11-21T12:26:13;4.57;;;2.60;;
6671;SDS011;3372;48.690;12.362;2023-11-21T12:28:39;4.78;;;2.63;;
6671;SDS011;3372;48.690;12.362;2023-11-21T12:31:05;4.47;;;2.63;;
6671;SDS011;3372;48.690;12.362;2023-11-21T12:33:32;4.38;;;2.95;;
6671;SDS011;3372;48.690;12.362;2023-11-21T12:35:58;5.18;;;2.85;;
6671;SDS011;3372;48.690;12.362;2023-11-21T12:38:24;6.90;;;4.03;;
6671;SDS011;3372;48.690;12.362;2023-11-21T12:40:49;6.68;;;3.20;;
6671;SDS011;3372;48.690;12.362;2023-11-21T12:43:16;5.38;;;3.25;;
6671;SDS011;3372;48.690;12.362;2023-11-21T12:45:43;6.15;;;2.90;;
6671;SDS011;3372;48.690;12.362;2023-11-21T12:48:09;5.78;;;3.05;;
6671;SDS011;3372;48.690;12.362;2023-11-21T12:50:36;6.97;;;4.35;;
6671;SDS011;3372;48.690;12.362;2023-11-21T12:53:04;4.30;;;2.38;;
6671;SDS011;3372;48.690;12.362;2023-11-21T12:55:41;10.20;;;5.60;;
6671;SDS011;3372;48.690;12.362;2023-11-21T12:58:08;7.00;;;3.78;;
6671;SDS011;3372;48.690;12.362;2023-11-21T13:00:36;14.13;;;7.13;;
6671;SDS011;3372;48.690;12.362;2023-11-21T13:03:10;11.70;;;5.72;;
6671;SDS011;3372;48.690;12.362;2023-11-21T13:05:38;8.88;;;4.13;;
6671;SDS011;3372;48.690;12.362;2023-11-21T13:08:06;9.73;;;4.90;;
6671;SDS011;3372;48.690;12.362;2023-11-21T13:10:36;7.80;;;4.90;;
6671;SDS011;3372;48.690;12.362;2023-11-21T13:13:04;6.63;;;3.72;;
6671;SDS011;3372;48.690;12.362;2023-11-21T13:15:33;7.63;;;3.45;;
6671;SDS011;3372;48.690;12.362;2023-11-21T13:18:01;5.93;;;3.58;;
6671;SDS011;3372;48.690;12.362;2023-11-21T13:20:27;6.70;;;3.78;;
6671;SDS011;3372;48.690;12.362;2023-11-21T13:22:55;7.00;;;3.78;;
6671;SDS011;3372;48.690;12.362;2023-11-21T13:25:27;5.55;;;3.75;;
6671;SDS011;3372;48.690;12.362;2023-11-21T13:27:59;6.65;;;3.28;;
6671;SDS011;3372;48.690;12.362;2023-11-21T13:30:26;16.90;;;3.90;;
6671;SDS011;3372;48.690;12.362;2023-11-21T13:35:18;4.07;;;3.10;;
6671;SDS011;3372;48.690;12.362;2023-11-21T13:37:55;9.15;;;4.25;;
6671;SDS011;3372;48.690;12.362;2023-11-21T13:40:26;5.70;;;3.55;;
6671;SDS011;3372;48.690;12.362;2023-11-21T13:42:52;7.15;;;4.15;;
6671;SDS011;3372;48.690;12.362;2023-11-21T13:45:20;8.68;;;4.35;;
6671;SDS011;3372;48.690;12.362;2023-11-21T13:47:47;8.48;;;4.03;;
6671;SDS011;3372;48.690;12.362;2023-11-21T13:50:18;7.22;;;3.90;;
6671;SDS011;3372;48.690;12.362;2023-11-21T13:52:48;5.63;;;3.90;;
6671;SDS011;3372;48.690;12.362;2023-11-21T13:55:16;4.35;;;3.45;;
6671;SDS011;3372;48.690;12.362;2023-11-21T13:57:42;6.00;;;3.42;;
6671;SDS011;3372;48.690;12.362;2023-11-21T14:00:10;9.45;;;4.25;;
6671;SDS011;3372;48.690;12.362;2023-11-21T14:02:56;6.22;;;4.30;;
6671;SDS011;3372;48.690;12.362;2023-11-21T14:05:26;5.78;;;3.85;;
6671;SDS011;3372;48.690;12.362;2023-11-21T14:07:55;7.70;;;3.58;;
6671;SDS011;3372;48.690;12.362;2023-11-21T14:10:25;6.38;;;3.63;;
6671;SDS011;3372;48.690;12.362;2023-11-21T14:12:51;5.55;;;3.70;;
6671;SDS011;3372;48.690;12.362;2023-11-21T14:15:17;4.55;;;2.92;;
6671;SDS011;3372;48.690;12.362;2023-11-21T14:17:44;7.60;;;3.65;;
6671;SDS011;3372;48.690;12.362;2023-11-21T14:20:10;6.65;;;3.88;;
6671;SDS011;3372;48.690;12.362;2023-11-21T14:22:42;4.25;;;2.95;;
6671;SDS011;3372;48.690;12.362;2023-11-21T14:25:08;5.63;;;3.10;;
6671;SDS011;3372;48.690;12.362;2023-11-21T14:27:36;6.80;;;5.00;;
6671;SDS011;3372;48.690;12.362;2023-11-21T14:30:02;5.32;;;3.10;;
6671;SDS011;3372;48.690;12.362;2023-11-21T14:32:28;5.85;;;3.20;;
6671;SDS011;3372;48.690;12.362;2023-11-21T14:34:53;5.80;;;3.30;;
6671;SDS011;3372;48.690;12.362;2023-11-21T14:37:19;4.38;;;3.17;;
6671;SDS011;3372;48.690;12.362;2023-11-21T14:39:44;5.47;;;3.10;;
6671;SDS011;3372;48.690;12.362;2023-11-21T14:42:13;6.95;;;3.45;;
6671;SDS011;3372;48.690;12.362;2023-11-21T14:44:49;5.22;;;3.63;;
6671;SDS011;3372;48.690;12.362;2023-11-21T14:47:14;5.20;;;3.75;;
6671;SDS011;3372;48.690;12.362;2023-11-21T14:49:41;5.55;;;3.28;;
6671;SDS011;3372;48.690;12.362;2023-11-21T14:52:24;10.50;;;5.63;;
6671;SDS011;3372;48.690;12.362;2023-11-21T14:55:00;7.32;;;3.85;;
6671;SDS011;3372;48.690;12.362;2023-11-21T14:57:47;9.90;;;5.40;;
6671;SDS011;3372;48.690;12.362;2023-11-21T15:00:16;5.55;;;4.00;;
6671;SDS011;3372;48.690;12.362;2023-11-21T15:03:02;5.80;;;3.20;;
6671;SDS011;3372;48.690;12.362;2023-11-21T15:05:29;5.55;;;4.10;;
6671;SDS011;3372;48.690;12.362;2023-11-21T15:07:55;4.75;;;2.80;;
6671;SDS011;3372;48.690;12.362;2023-11-21T15:10:33;5.97;;;3.60;;
6671;SDS011;3372;48.690;12.362;2023-11-21T15:13:13;4.68;;;3.38;;
6671;SDS011;3372;48.690;12.362;2023-11-21T15:15:40;3.95;;;2.72;;
6671;SDS011;3372;48.690;12.362;2023-11-21T15:20:32;6.05;;;4.05;;
6671;SDS011;3372;48.690;12.362;2023-11-21T15:22:58;10.45;;;7.13;;
6671;SDS011;3372;48.690;12.362;2023-11-21T15:25:25;8.75;;;6.03;;
6671;SDS011;3372;48.690;12.362;2023-11-21T15:27:50;6.45;;;4.82;;
6671;SDS011;3372;48.690;12.362;2023-11-21T15:30:16;11.13;;;7.75;;
6671;SDS011;3372;48.690;12.362;2023-11-21T15:32:48;13.77;;;8.25;;
6671;SDS011;3372;48.690;12.362;2023-11-21T15:35:13;16.52;;;11.77;;
6671;SDS011;3372;48.690;12.362;2023-11-21T15:37:39;9.43;;;5.28;;
6671;SDS011;3372;48.690;12.362;2023-11-21T15:40:06;5.15;;;3.38;;
6671;SDS011;3372;48.690;12.362;2023-11-21T15:42:33;5.95;;;4.07;;